Time;durP1;ratioP1;P1;durP2;ratioP2;P2;SDS_P1;SDS_P2;PMS_P1;PMS_P2;Temp;Humidity;BMP_temperature;BMP_pressure;BME280_temperature;BME280_humidity;BME280_pressure;Samples;Min_cycle;Max_cycle;Signal;HPM_P1;HPM_P2
2022/12/29 00:03:09;;;;;;;16.77;6.67;;;3.60;99.90;;;;;;10400224;28;20543;-75
2022/12/29 00:08:09;;;;;;;13.77;6.70;;;3.60;99.90;;;;;;10401157;28;20072;-76
2022/12/29 00:18:29;;;;;;;14.33;6.23;;;3.60;99.90;;;;;;10400170;28;20111;-76
2022/12/29 00:44:49;;;;;;;15.23;6.97;;;3.50;99.90;;;;;;10396085;28;20037;-79
2022/12/29 00:49:49;;;;;;;19.50;7.60;;;3.50;99.90;;;;;;10406431;28;20037;-78
2022/12/29 00:54:50;;;;;;;14.93;8.43;;;3.50;99.90;;;;;;10389306;28;20030;-76
2022/12/29 00:59:50;;;;;;;17.80;8.53;;;3.40;99.90;;;;;;10390987;28;20044;-75
2022/12/29 01:04:51;;;;;;;18.10;8.03;;;3.40;99.90;;;;;;10398465;28;20032;-74
2022/12/29 01:10:10;;;;;;;21.50;9.20;;;3.40;99.90;;;;;;10402717;28;20436;-76
2022/12/29 01:15:13;;;;;;;17.80;8.97;;;3.30;99.90;;;;;;10408058;28;20087;-73
2022/12/29 01:20:13;;;;;;;17.97;9.07;;;3.20;99.90;;;;;;10414082;28;20033;-74
2022/12/29 01:25:14;;;;;;;22.53;8.90;;;3.10;99.90;;;;;;10407912;28;20476;-76
2022/12/29 01:30:15;;;;;;;16.07;7.77;;;3.10;99.90;;;;;;10411300;28;20085;-76
2022/12/29 01:35:15;;;;;;;19.80;7.73;;;3.20;99.90;;;;;;10406862;28;20046;-75
2022/12/29 01:40:16;;;;;;;17.40;7.70;;;3.20;99.90;;;;;;10407136;28;20112;-74
2022/12/29 01:45:18;;;;;;;17.57;8.50;;;3.30;99.90;;;;;;10407143;28;20030;-75
2022/12/29 01:50:26;;;;;;;17.80;8.37;;;3.30;99.90;;;;;;10417343;28;20037;-74
2022/12/29 01:55:31;;;;;;;19.83;8.23;;;3.30;99.90;;;;;;10406129;28;20073;-75
2022/12/29 02:00:32;;;;;;;20.67;9.50;;;3.40;99.90;;;;;;10407080;28;20033;-76
2022/12/29 02:05:42;;;;;;;18.07;9.27;;;3.40;99.90;;;;;;10406593;28;20025;-74
2022/12/29 02:10:44;;;;;;;17.67;8.97;;;3.40;99.90;;;;;;10406611;28;20378;-74
2022/12/29 02:15:47;;;;;;;22.43;9.47;;;3.40;99.90;;;;;;10407409;28;20786;-74
2022/12/29 02:21:22;;;;;;;21.27;8.90;;;3.30;99.90;;;;;;10405059;28;20707;-77
2022/12/29 02:27:06;;;;;;;19.00;8.57;;;3.20;99.90;;;;;;10404856;28;20087;-77
2022/12/29 02:32:26;;;;;;;14.47;8.23;;;3.20;99.90;;;;;;10404147;28;20042;-75
2022/12/29 02:37:46;;;;;;;22.90;9.73;;;3.20;99.90;;;;;;10404485;28;20045;-74
2022/12/29 02:43:08;;;;;;;20.23;9.60;;;3.20;99.90;;;;;;10404801;28;20053;-75
2022/12/29 02:48:45;;;;;;;16.67;8.70;;;3.20;99.90;;;;;;10393723;28;20037;-77
2022/12/29 02:59:06;;;;;;;19.83;9.57;;;3.20;99.90;;;;;;10414183;28;20057;-74
2022/12/29 03:04:39;;;;;;;19.33;9.20;;;3.20;99.90;;;;;;10403577;28;20025;-78
2022/12/29 03:09:47;;;;;;;23.60;10.87;;;3.20;99.90;;;;;;10411824;28;20464;-77
2022/12/29 03:20:23;;;;;;;17.93;8.93;;;3.20;99.90;;;;;;10407718;28;20109;-75
2022/12/29 03:25:30;;;;;;;17.73;8.87;;;3.20;99.90;;;;;;10403388;28;20045;-77
2022/12/29 03:30:34;;;;;;;16.50;8.53;;;3.20;99.90;;;;;;10404389;28;20037;-76
2022/12/29 03:35:38;;;;;;;16.10;7.90;;;3.20;99.90;;;;;;10408404;28;20042;-74
2022/12/29 03:40:43;;;;;;;16.40;6.97;;;3.10;99.90;;;;;;10402205;28;20029;-76
2022/12/29 03:45:43;;;;;;;13.03;6.93;;;3.20;99.90;;;;;;10403473;28;20041;-74
2022/12/29 03:50:44;;;;;;;17.17;7.07;;;3.20;99.90;;;;;;10401957;28;20041;-75
2022/12/29 03:55:45;;;;;;;17.40;7.80;;;3.30;99.90;;;;;;10400978;28;20140;-75
2022/12/29 04:00:45;;;;;;;15.20;8.17;;;3.20;99.90;;;;;;10406130;28;20405;-75
2022/12/29 04:05:46;;;;;;;16.47;7.47;;;3.20;99.90;;;;;;10400783;28;20477;-76
2022/12/29 04:10:48;;;;;;;15.70;7.30;;;3.10;99.90;;;;;;10401669;28;20639;-77
2022/12/29 04:15:49;;;;;;;18.97;9.30;;;3.10;99.90;;;;;;10400845;28;20443;-76
2022/12/29 04:21:03;;;;;;;14.03;8.00;;;3.00;99.90;;;;;;10384823;28;20026;-77
2022/12/29 04:26:06;;;;;;;21.90;9.47;;;2.90;99.90;;;;;;10390005;28;20116;-75
2022/12/29 04:31:07;;;;;;;14.20;7.90;;;2.90;99.90;;;;;;10402242;28;20038;-75
2022/12/29 04:36:08;;;;;;;13.53;6.90;;;3.00;99.90;;;;;;10400489;28;20118;-75
2022/12/29 04:41:08;;;;;;;12.40;7.30;;;3.00;99.90;;;;;;10400667;28;20045;-77
2022/12/29 04:46:09;;;;;;;17.80;8.63;;;2.90;99.90;;;;;;10408163;28;20492;-76
2022/12/29 04:51:10;;;;;;;19.60;8.77;;;2.90;99.90;;;;;;10415187;28;20091;-75
2022/12/29 04:56:10;;;;;;;18.30;9.17;;;2.80;99.90;;;;;;10399976;28;20064;-75
2022/12/29 05:01:11;;;;;;;21.47;9.63;;;2.80;99.90;;;;;;10399799;28;20073;-75
2022/12/29 05:06:12;;;;;;;19.23;8.67;;;2.80;99.90;;;;;;10400363;28;20195;-74
2022/12/29 05:11:12;;;;;;;19.13;8.50;;;2.80;99.90;;;;;;10401273;28;20041;-76
2022/12/29 05:16:13;;;;;;;19.37;8.93;;;2.80;99.90;;;;;;10412883;28;20046;-76
2022/12/29 05:21:13;;;;;;;26.80;10.80;;;2.80;99.90;;;;;;10411992;28;20124;-75
2022/12/29 05:26:14;;;;;;;53.27;21.57;;;2.70;99.90;;;;;;10413990;28;20124;-76
2022/12/29 05:31:14;;;;;;;97.03;33.50;;;2.70;99.90;;;;;;10403106;28;20382;-75
2022/12/29 05:36:15;;;;;;;89.73;33.60;;;2.70;99.90;;;;;;10390439;28;20053;-75
2022/12/29 05:41:15;;;;;;;108.27;35.40;;;2.70;99.90;;;;;;10387173;28;20047;-75
2022/12/29 05:46:16;;;;;;;97.10;32.00;;;2.60;99.90;;;;;;10398549;28;20032;-75
2022/12/29 05:51:17;;;;;;;62.60;25.97;;;2.50;99.90;;;;;;10384844;28;20759;-75
2022/12/29 05:56:17;;;;;;;55.20;22.70;;;2.40;99.90;;;;;;10398999;28;20044;-75
2022/12/29 06:01:18;;;;;;;48.03;20.50;;;2.30;99.90;;;;;;10397916;28;20048;-75
2022/12/29 06:06:18;;;;;;;45.90;18.57;;;2.10;99.90;;;;;;10391324;28;20040;-75
2022/12/29 06:11:19;;;;;;;28.10;14.27;;;2.00;99.90;;;;;;10406382;28;20021;-75
2022/12/29 06:16:19;;;;;;;27.00;14.73;;;1.90;99.90;;;;;;10404724;28;20773;-75
2022/12/29 06:21:20;;;;;;;33.30;15.47;;;1.90;99.90;;;;;;10378526;28;20025;-75
2022/12/29 06:26:21;;;;;;;30.00;13.90;;;1.90;99.90;;;;;;10391923;28;20036;-77
2022/12/29 06:31:21;;;;;;;32.83;12.23;;;2.00;99.90;;;;;;10379552;28;20040;-75
2022/12/29 06:36:22;;;;;;;19.93;9.30;;;2.30;99.90;;;;;;10367554;28;20080;-75
2022/12/29 06:41:23;;;;;;;37.33;14.37;;;2.50;99.90;;;;;;10402320;28;20040;-77
2022/12/29 06:46:23;;;;;;;20.40;9.60;;;2.70;99.90;;;;;;10376272;28;20034;-75
2022/12/29 06:51:24;;;;;;;23.50;9.77;;;2.90;99.90;;;;;;10401302;28;20211;-74
2022/12/29 06:56:24;;;;;;;25.00;11.17;;;3.00;99.90;;;;;;10405127;28;20608;-75
2022/12/29 07:01:25;;;;;;;38.07;16.53;;;3.00;99.90;;;;;;10402976;28;20021;-75
2022/12/29 07:06:26;;;;;;;35.03;13.83;;;3.00;99.90;;;;;;10398630;28;20512;-75
2022/12/29 07:11:26;;;;;;;27.53;12.13;;;2.90;99.90;;;;;;10399046;28;20021;-77
2022/12/29 07:16:29;;;;;;;33.37;14.93;;;2.80;99.90;;;;;;10399692;28;20045;-75
2022/12/29 07:21:29;;;;;;;70.60;28.87;;;2.70;99.90;;;;;;10403616;28;20067;-74
2022/12/29 07:26:30;;;;;;;94.47;40.20;;;2.60;99.90;;;;;;10403321;28;20112;-75
2022/12/29 07:31:31;;;;;;;142.20;60.23;;;2.50;99.90;;;;;;10403031;28;20037;-75
2022/12/29 07:36:31;;;;;;;216.50;85.47;;;2.60;99.90;;;;;;10402700;28;20053;-75
2022/12/29 07:41:32;;;;;;;36.97;16.77;;;2.70;99.90;;;;;;10403397;28;20452;-75
2022/12/29 07:46:32;;;;;;;38.30;15.83;;;2.80;99.90;;;;;;10403379;28;20033;-75
2022/12/29 07:51:33;;;;;;;30.93;14.20;;;2.90;99.90;;;;;;10403140;28;20025;-77
2022/12/29 07:56:33;;;;;;;29.00;13.13;;;3.10;99.90;;;;;;10402687;28;20037;-75
2022/12/29 08:01:34;;;;;;;26.17;13.67;;;3.30;99.90;;;;;;10402698;28;20424;-74
2022/12/29 08:06:34;;;;;;;42.73;18.50;;;3.60;99.90;;;;;;10402304;28;20030;-75
2022/12/29 08:11:36;;;;;;;49.57;20.63;;;3.80;99.90;;;;;;10402812;28;20107;-75
2022/12/29 08:16:37;;;;;;;62.53;25.90;;;4.20;99.90;;;;;;10401436;28;20037;-75
2022/12/29 08:21:37;;;;;;;56.30;24.20;;;4.50;99.90;;;;;;10401260;28;20037;-74
2022/12/29 08:26:38;;;;;;;70.20;27.90;;;4.70;99.90;;;;;;10401742;28;20496;-75
2022/12/29 08:31:38;;;;;;;43.03;18.70;;;4.80;99.90;;;;;;10401176;28;20029;-77
2022/12/29 08:36:39;;;;;;;60.57;24.37;;;5.00;99.90;;;;;;10401722;28;20081;-76
2022/12/29 08:41:39;;;;;;;42.10;19.50;;;5.10;99.90;;;;;;10401197;28;20060;-75
2022/12/29 08:46:40;;;;;;;39.43;17.17;;;5.30;99.90;;;;;;10401701;28;20382;-75
2022/12/29 08:51:41;;;;;;;33.03;14.60;;;5.50;99.90;;;;;;10401443;28;20470;-75
2022/12/29 08:56:41;;;;;;;39.50;18.50;;;5.70;99.90;;;;;;10401637;28;20037;-75
2022/12/29 09:01:42;;;;;;;44.27;19.30;;;5.90;99.90;;;;;;10400901;28;20568;-75
2022/12/29 09:06:43;;;;;;;36.60;18.17;;;6.10;99.90;;;;;;10400502;28;20042;-75
2022/12/29 09:11:44;;;;;;;26.27;14.90;;;6.40;99.90;;;;;;10401152;28;20037;-76
2022/12/29 09:22:04;;;;;;;35.00;14.53;;;7.00;99.90;;;;;;10401169;28;20473;-75
2022/12/29 09:27:05;;;;;;;23.00;11.13;;;7.00;99.90;;;;;;10400259;28;20034;-75
2022/12/29 09:32:05;;;;;;;24.23;11.60;;;7.20;99.90;;;;;;10400199;28;20628;-76
2022/12/29 09:37:06;;;;;;;21.60;9.93;;;7.30;99.90;;;;;;10406653;28;20096;-74
2022/12/29 09:42:25;;;;;;;24.10;10.63;;;7.50;99.90;;;;;;10407660;28;20574;-76
2022/12/29 09:47:27;;;;;;;24.53;11.03;;;7.60;99.90;;;;;;10416783;28;20033;-76
2022/12/29 09:52:32;;;;;;;23.43;10.93;;;7.70;99.90;;;;;;10407955;28;20028;-75
2022/12/29 09:57:44;;;;;;;26.85;13.45;;;7.60;99.90;;;;;;10429684;28;20041;-76
2022/12/29 10:03:14;;;;;;;28.43;14.13;;;7.50;99.90;;;;;;10414677;28;20044;-75
2022/12/29 10:08:39;;;;;;;26.40;12.23;;;7.50;99.90;;;;;;10393865;28;20056;-75
2022/12/29 10:13:58;;;;;;;24.80;12.33;;;7.50;99.90;;;;;;10401842;28;20025;-76
2022/12/29 10:19:27;;;;;;;28.07;13.47;;;7.50;99.90;;;;;;10395598;28;20099;-75
2022/12/29 10:24:30;;;;;;;24.70;13.10;;;7.50;99.90;;;;;;10376829;28;20028;-75
2022/12/29 10:29:40;;;;;;;28.13;13.70;;;7.60;99.90;;;;;;10364133;28;20133;-76
2022/12/29 10:34:46;;;;;;;31.43;15.67;;;7.50;99.90;;;;;;10400109;28;20080;-74
2022/12/29 10:39:51;;;;;;;31.50;14.93;;;7.60;99.90;;;;;;10405547;28;20025;-76
2022/12/29 10:44:52;;;;;;;28.07;14.60;;;7.50;99.90;;;;;;10404533;28;20026;-75
2022/12/29 10:49:53;;;;;;;25.03;13.47;;;7.50;99.90;;;;;;10405522;28;20655;-75
2022/12/29 10:54:59;;;;;;;30.67;14.47;;;7.50;99.90;;;;;;10404949;28;20103;-74
2022/12/29 11:00:00;;;;;;;45.07;20.43;;;7.40;99.90;;;;;;10404926;28;20083;-77
2022/12/29 11:05:10;;;;;;;33.43;15.47;;;7.40;99.90;;;;;;10404772;28;20075;-75
2022/12/29 11:10:28;;;;;;;27.10;12.67;;;7.30;99.90;;;;;;10404014;28;20432;-75
2022/12/29 11:15:40;;;;;;;31.00;14.40;;;7.40;99.90;;;;;;10404964;28;20036;-75
2022/12/29 11:20:42;;;;;;;28.57;13.53;;;7.40;99.90;;;;;;10404847;28;20018;-75
2022/12/29 11:25:42;;;;;;;28.60;14.47;;;7.40;99.90;;;;;;10403169;28;20020;-75
2022/12/29 11:30:43;;;;;;;43.33;19.97;;;7.50;99.90;;;;;;10403164;28;20033;-75
2022/12/29 11:35:44;;;;;;;27.00;14.17;;;7.60;99.90;;;;;;10402886;28;20063;-75
2022/12/29 11:40:45;;;;;;;35.47;17.70;;;7.70;99.90;;;;;;10403218;28;20033;-75
2022/12/29 11:45:46;;;;;;;28.07;14.40;;;7.80;99.90;;;;;;10403985;28;20026;-75
2022/12/29 11:50:57;;;;;;;24.33;12.07;;;8.00;99.90;;;;;;10402486;28;20098;-75
2022/12/29 11:56:05;;;;;;;18.37;9.83;;;8.20;99.90;;;;;;10401142;28;20121;-75
2022/12/29 12:01:18;;;;;;;22.53;11.27;;;8.20;99.90;;;;;;10401969;28;20034;-75
2022/12/29 12:06:23;;;;;;;23.00;11.70;;;8.30;99.90;;;;;;10402005;28;20068;-76
2022/12/29 12:11:37;;;;;;;23.38;11.25;;;8.30;99.90;;;;;;10396507;28;20080;-75
2022/12/29 12:16:45;;;;;;;24.17;11.03;;;8.30;99.90;;;;;;10374063;28;20041;-75
2022/12/29 12:21:51;;;;;;;25.87;13.53;;;8.30;99.90;;;;;;10362763;28;20026;-76
2022/12/29 12:27:09;;;;;;;25.33;12.55;;;8.40;99.90;;;;;;10362734;28;20026;-75
2022/12/29 12:32:22;;;;;;;27.93;12.30;;;8.40;99.90;;;;;;10362689;28;20030;-75
2022/12/29 12:37:43;;;;;;;23.37;12.70;;;8.50;99.90;;;;;;10359006;28;20050;-76
2022/12/29 12:42:57;;;;;;;21.93;11.97;;;8.60;99.90;;;;;;10359250;28;20869;-76
2022/12/29 12:48:16;;;;;;;25.70;12.17;;;8.60;99.90;;;;;;10370676;28;20531;-76
2022/12/29 12:53:47;;;;;;;19.23;10.33;;;8.40;99.90;;;;;;10359701;28;20465;-76
2022/12/29 12:59:16;;;;;;;71.43;27.53;;;8.10;99.90;;;;;;10361916;28;20034;-76
2022/12/29 13:04:50;;;;;;;29.93;13.10;;;8.00;99.90;;;;;;10407702;28;20064;-76
2022/12/29 13:09:54;;;;;;;30.93;12.73;;;8.00;99.90;;;;;;10404534;28;20699;-75
2022/12/29 13:15:13;;;;;;;42.43;16.93;;;8.10;99.90;;;;;;10417844;28;20458;-77
2022/12/29 13:20:16;;;;;;;67.37;27.50;;;8.20;99.90;;;;;;10411914;28;20090;-76
2022/12/29 13:25:20;;;;;;;36.80;15.43;;;8.30;99.90;;;;;;10427285;28;20017;-76
2022/12/29 13:30:26;;;;;;;64.60;24.87;;;8.40;99.90;;;;;;10392278;28;20038;-77
2022/12/29 13:35:48;;;;;;;55.65;19.85;;;8.50;99.90;;;;;;10407156;28;20053;-77
2022/12/29 13:40:59;;;;;;;35.20;14.73;;;8.60;99.90;;;;;;10391673;28;20037;-76
2022/12/29 13:46:09;;;;;;;238.97;120.77;;;8.50;99.90;;;;;;10372327;28;20025;-77
2022/12/29 13:51:11;;;;;;;61.53;25.40;;;8.50;99.90;;;;;;10371707;28;20120;-75
2022/12/29 13:56:14;;;;;;;61.23;25.50;;;8.50;99.90;;;;;;10366434;28;20562;-75
2022/12/29 14:01:20;;;;;;;85.63;32.73;;;8.50;99.90;;;;;;10391566;28;20033;-77
2022/12/29 14:06:25;;;;;;;73.93;30.92;;;8.40;99.90;;;;;;10403636;28;20029;-76
2022/12/29 14:11:40;;;;;;;63.60;28.50;;;8.40;99.90;;;;;;10405397;28;20040;-76
2022/12/29 14:16:42;;;;;;;90.67;35.80;;;8.30;99.90;;;;;;10420230;28;20105;-76
2022/12/29 14:22:03;;;;;;;105.37;38.03;;;8.10;99.90;;;;;;10409712;28;20028;-76
2022/12/29 14:27:09;;;;;;;152.87;60.73;;;7.90;99.90;;;;;;10399646;28;20064;-78
2022/12/29 14:32:25;;;;;;;64.23;31.50;;;7.80;99.90;;;;;;10415991;28;20111;-77
2022/12/29 14:37:26;;;;;;;;;;;7.70;99.90;;;;;;10407921;28;20095;-76
2022/12/29 14:42:30;;;;;;;61.77;24.90;;;7.50;99.90;;;;;;10411381;28;19913;-77
2022/12/29 14:47:34;;;;;;;49.30;22.73;;;7.50;99.90;;;;;;10427589;28;20020;-78
2022/12/29 14:52:53;;;;;;;51.17;25.20;;;7.40;99.90;;;;;;10399403;28;20040;-78
2022/12/29 14:58:03;;;;;;;53.23;23.93;;;7.40;99.90;;;;;;10404478;28;20049;-77
2022/12/29 15:03:24;;;;;;;51.47;24.23;;;7.40;99.90;;;;;;10403005;28;20033;-78
2022/12/29 15:08:32;;;;;;;45.97;21.60;;;7.30;99.90;;;;;;10403370;28;20017;-78
2022/12/29 15:13:37;;;;;;;53.20;26.53;;;7.20;99.90;;;;;;10372768;28;20551;-77
2022/12/29 15:18:42;;;;;;;50.60;26.37;;;7.30;99.90;;;;;;10379847;28;20103;-77
2022/12/29 15:23:44;;;;;;;46.47;22.87;;;7.20;99.90;;;;;;10402725;28;20091;-77
2022/12/29 15:28:46;;;;;;;46.90;25.77;;;7.20;99.90;;;;;;10402312;28;20418;-77
2022/12/29 15:33:52;;;;;;;39.67;21.73;;;7.20;99.90;;;;;;10388432;28;20146;-79
2022/12/29 15:38:53;;;;;;;37.90;21.43;;;7.10;99.90;;;;;;10391954;28;20056;-78
2022/12/29 15:44:33;;;;;;;42.73;23.30;;;7.00;99.90;;;;;;10402522;28;20044;-79
2022/12/29 15:49:33;;;;;;;47.07;24.13;;;7.00;99.90;;;;;;10398764;28;20050;-77
2022/12/29 15:54:34;;;;;;;43.20;22.20;;;7.00;99.90;;;;;;10401748;28;20107;-80
2022/12/29 15:59:35;;;;;;;48.70;25.10;;;7.00;99.90;;;;;;10388525;28;20120;-79
2022/12/29 16:04:36;;;;;;;42.20;22.03;;;7.00;99.90;;;;;;10401979;28;20043;-80
2022/12/29 16:09:42;;;;;;;42.57;22.40;;;7.00;99.90;;;;;;10401100;28;20445;-78
2022/12/29 16:14:48;;;;;;;40.30;20.27;;;7.00;99.90;;;;;;10381417;28;20108;-78
2022/12/29 16:19:52;;;;;;;46.25;21.98;;;7.00;99.90;;;;;;10389872;28;20033;-79
2022/12/29 16:25:09;;;;;;;40.83;20.27;;;7.00;99.90;;;;;;10400847;28;20021;-80
2022/12/29 16:30:36;;;;;;;33.83;18.57;;;6.90;99.90;;;;;;10387550;28;20037;-81
2022/12/29 16:35:46;;;;;;;40.23;21.37;;;6.90;99.90;;;;;;10386524;28;20041;-79
2022/12/29 16:40:55;;;;;;;41.97;20.03;;;6.90;99.90;;;;;;10403374;28;20104;-77
2022/12/29 16:46:16;;;;;;;34.03;17.93;;;7.00;99.90;;;;;;10399931;28;20029;-77
2022/12/29 16:51:32;;;;;;;31.40;15.23;;;7.10;99.90;;;;;;10401910;28;20102;-77
2022/12/29 16:56:34;;;;;;;;;;;7.10;99.90;;;;;;10395029;28;20052;-77
2022/12/29 17:01:39;;;;;;;55.67;27.73;;;7.20;99.90;;;;;;10392501;28;19963;-78
2022/12/29 17:06:40;;;;;;;76.93;35.27;;;7.20;99.90;;;;;;10400433;28;20493;-77
2022/12/29 17:11:53;;;;;;;84.27;38.83;;;7.20;99.90;;;;;;10406477;28;20033;-79
2022/12/29 17:16:54;;;;;;;93.60;41.77;;;7.20;99.90;;;;;;10391808;28;20107;-77
2022/12/29 17:21:56;;;;;;;110.63;45.43;;;7.10;99.90;;;;;;10399471;28;20064;-77
2022/12/29 17:26:59;;;;;;;89.03;38.17;;;7.10;99.90;;;;;;10397921;28;20644;-77
2022/12/29 17:32:01;;;;;;;61.10;28.43;;;7.10;99.90;;;;;;10384770;28;20040;-78
2022/12/29 17:37:03;;;;;;;47.23;22.37;;;7.10;99.90;;;;;;10371070;28;20053;-77
2022/12/29 17:42:03;;;;;;;83.60;35.40;;;7.10;99.90;;;;;;10408274;28;20100;-77
2022/12/29 17:47:04;;;;;;;67.50;28.80;;;7.10;99.90;;;;;;10404538;28;20075;-76
2022/12/29 17:52:05;;;;;;;60.73;25.97;;;7.10;99.90;;;;;;10401071;28;20037;-77
2022/12/29 17:57:07;;;;;;;62.90;27.83;;;7.10;99.90;;;;;;10384940;28;20167;-79
2022/12/29 18:02:26;;;;;;;100.13;42.87;;;7.10;99.90;;;;;;10429712;28;20751;-78
2022/12/29 18:07:28;;;;;;;56.77;26.10;;;7.00;99.90;;;;;;10403673;28;20529;-77
2022/12/29 18:12:42;;;;;;;41.07;20.83;;;7.00;99.90;;;;;;10395099;28;20160;-78
2022/12/29 18:17:43;;;;;;;45.27;22.23;;;6.90;99.90;;;;;;10391438;28;20041;-78
2022/12/29 18:22:43;;;;;;;49.40;24.67;;;6.80;99.90;;;;;;10389743;28;20685;-77
2022/12/29 18:27:44;;;;;;;57.63;26.70;;;6.70;99.90;;;;;;10423071;28;20059;-77
2022/12/29 18:32:45;;;;;;;54.50;26.73;;;6.70;99.90;;;;;;10410274;28;20056;-76
2022/12/29 18:37:45;;;;;;;46.03;23.10;;;6.60;99.90;;;;;;10403626;28;20049;-77
2022/12/29 18:42:46;;;;;;;59.90;27.53;;;6.60;99.90;;;;;;10410446;28;20541;-76
2022/12/29 18:47:46;;;;;;;60.07;30.03;;;6.50;99.90;;;;;;10394987;28;20112;-76
2022/12/29 18:52:47;;;;;;;63.17;30.60;;;6.40;99.90;;;;;;10375615;28;20477;-77
2022/12/29 18:57:48;;;;;;;47.50;24.97;;;6.40;99.90;;;;;;10403544;28;20046;-77
2022/12/29 19:02:51;;;;;;;52.27;28.20;;;6.30;99.90;;;;;;10412671;28;20026;-77
2022/12/29 19:07:52;;;;;;;88.13;38.10;;;6.30;99.90;;;;;;10411789;28;20033;-76
2022/12/29 19:12:53;;;;;;;57.63;28.83;;;6.20;99.90;;;;;;10376742;28;20083;-78
2022/12/29 19:17:56;;;;;;;52.53;26.43;;;6.20;99.90;;;;;;10400042;28;20037;-79
2022/12/29 19:22:58;;;;;;;56.20;28.60;;;6.10;99.90;;;;;;10399515;28;20056;-79
2022/12/29 19:27:59;;;;;;;54.73;28.67;;;6.00;99.90;;;;;;10392595;28;20136;-78
2022/12/29 19:33:03;;;;;;;46.07;24.77;;;6.00;99.90;;;;;;10410138;28;20447;-77
2022/12/29 19:38:04;;;;;;;40.67;23.07;;;6.00;99.90;;;;;;10396842;28;20073;-77
2022/12/29 19:43:05;;;;;;;47.63;26.20;;;6.00;99.90;;;;;;10394557;28;20115;-77
2022/12/29 19:48:14;;;;;;;49.03;25.97;;;6.00;99.90;;;;;;10405651;28;20037;-75
2022/12/29 19:53:15;;;;;;;42.53;22.57;;;6.10;99.90;;;;;;10404595;28;20040;-77
2022/12/29 19:58:16;;;;;;;33.10;18.33;;;6.10;99.90;;;;;;10421157;28;20520;-78
2022/12/29 20:03:18;;;;;;;40.27;19.27;;;6.20;99.90;;;;;;10411590;28;20041;-77
2022/12/29 20:08:19;;;;;;;43.80;20.63;;;6.20;99.90;;;;;;10404928;28;20112;-77
2022/12/29 20:13:19;;;;;;;31.77;16.93;;;6.20;99.90;;;;;;10415075;28;20121;-75
2022/12/29 20:18:20;;;;;;;42.47;20.57;;;6.20;99.90;;;;;;10388035;28;20026;-77
2022/12/29 20:23:20;;;;;;;29.70;15.80;;;6.20;99.90;;;;;;10392900;28;20048;-76
2022/12/29 20:28:22;;;;;;;31.47;15.40;;;6.10;99.90;;;;;;10413707;28;20108;-78
2022/12/29 20:33:22;;;;;;;40.13;19.37;;;6.10;99.90;;;;;;10408444;28;20056;-77
2022/12/29 20:38:23;;;;;;;35.77;17.30;;;6.00;99.90;;;;;;10408719;28;20382;-78
2022/12/29 20:43:25;;;;;;;31.40;17.30;;;6.00;99.90;;;;;;10397750;28;20054;-76
2022/12/29 20:48:26;;;;;;;40.30;18.57;;;5.90;99.90;;;;;;10407286;28;20037;-77
2022/12/29 20:53:31;;;;;;;31.10;16.10;;;5.90;99.90;;;;;;10396138;28;20048;-76
2022/12/29 20:58:32;;;;;;;35.53;16.63;;;5.80;99.90;;;;;;10400349;28;20546;-77
2022/12/29 21:03:33;;;;;;;31.90;15.70;;;5.80;99.90;;;;;;10400675;28;20033;-78
2022/12/29 21:08:34;;;;;;;31.10;15.57;;;5.80;99.90;;;;;;10379754;28;20140;-77
2022/12/29 21:13:35;;;;;;;27.23;12.63;;;5.80;99.90;;;;;;10400241;28;20068;-76
2022/12/29 21:18:35;;;;;;;26.40;13.03;;;5.80;99.90;;;;;;10402613;28;20033;-77
2022/12/29 21:23:39;;;;;;;25.23;13.17;;;5.80;99.90;;;;;;10402732;28;20033;-76
2022/12/29 21:28:40;;;;;;;29.23;13.60;;;5.80;99.90;;;;;;10402350;28;20036;-77
2022/12/29 21:33:41;;;;;;;30.97;13.73;;;5.80;99.90;;;;;;10417861;28;20136;-75
2022/12/29 21:38:41;;;;;;;27.40;15.03;;;5.80;99.90;;;;;;10414193;28;20048;-76
2022/12/29 21:45:23;;;;;;;26.43;15.07;;;5.70;99.90;;;;;;10417388;28;20104;-77
2022/12/29 21:49:05;;;;;;;27.20;13.10;;;5.60;99.90;;;;;;10412455;28;20490;-76
2022/12/29 22:15:23;;;;;;;30.63;14.70;;;5.60;99.90;;;;;;10414654;28;20140;-77
2022/12/29 22:20:27;;;;;;;27.60;14.00;;;5.50;99.90;;;;;;10418303;28;20029;-77
2022/12/29 22:25:27;;;;;;;28.23;13.97;;;5.60;99.90;;;;;;10415996;28;20033;-77
2022/12/29 22:30:28;;;;;;;26.73;13.27;;;5.60;99.90;;;;;;10428898;28;20657;-77
2022/12/29 22:35:29;;;;;;;29.67;13.07;;;5.60;99.90;;;;;;10422202;28;20115;-77
2022/12/29 22:40:29;;;;;;;22.50;12.53;;;5.60;99.90;;;;;;10425752;28;20060;-76
2022/12/29 22:45:30;;;;;;;25.90;12.90;;;5.60;99.90;;;;;;10420144;28;20025;-77
2022/12/29 22:50:30;;;;;;;25.57;12.43;;;5.50;99.90;;;;;;10422491;28;20026;-77
2022/12/29 22:55:31;;;;;;;29.60;13.50;;;5.50;99.90;;;;;;10417935;28;20468;-77
2022/12/29 23:00:32;;;;;;;26.53;13.23;;;5.60;99.90;;;;;;10415469;22;20076;-78
2022/12/29 23:05:32;;;;;;;28.73;13.90;;;5.60;99.90;;;;;;10397102;28;20036;-77
2022/12/29 23:10:33;;;;;;;27.40;12.73;;;5.50;99.90;;;;;;10419361;28;20035;-77
2022/12/29 23:15:33;;;;;;;22.37;12.07;;;5.50;99.90;;;;;;10441536;28;20517;-77
2022/12/29 23:20:34;;;;;;;23.27;11.13;;;5.60;99.90;;;;;;10441758;28;20074;-76
2022/12/29 23:25:36;;;;;;;26.90;13.47;;;5.60;99.90;;;;;;10440663;28;20067;-77
2022/12/29 23:30:36;;;;;;;29.47;14.60;;;5.60;99.90;;;;;;10436724;28;20404;-77
2022/12/29 23:35:37;;;;;;;22.93;13.10;;;5.60;99.90;;;;;;10441881;28;20048;-77
2022/12/29 23:40:37;;;;;;;23.40;11.00;;;5.60;99.90;;;;;;10440265;28;20519;-76
2022/12/29 23:45:38;;;;;;;22.70;10.70;;;5.60;99.90;;;;;;10440062;28;20039;-77
2022/12/29 23:50:40;;;;;;;20.83;11.23;;;5.60;99.90;;;;;;10439517;28;20051;-76
2022/12/29 23:55:42;;;;;;;23.77;11.93;;;5.60;99.90;;;;;;10439409;28;20041;-77
